Time;durP1;ratioP1;P1;durP2;ratioP2;P2;SDS_P1;SDS_P2;PMS_P1;PMS_P2;Temp;Humidity;BMP_temperature;BMP_pressure;BME280_temperature;BME280_humidity;BME280_pressure;Samples;Min_cycle;Max_cycle;Signal;HPM_P1;HPM_P2
2022/09/18 00:01:13;;;;;;;4.27;2.70;;;10.80;99.90;;;;;;5022203;28;20514;-51
2022/09/18 00:03:40;;;;;;;1.50;1.40;;;10.80;99.90;;;;;;5033688;28;20463;-51
2022/09/18 00:06:08;;;;;;;3.23;1.30;;;10.80;99.90;;;;;;5027523;28;20482;-52
2022/09/18 00:08:37;;;;;;;11.53;8.97;;;10.80;99.90;;;;;;5065082;22;20555;-55
2022/09/18 00:11:05;;;;;;;2.83;2.53;;;10.80;98.70;;;;;;5070353;28;20512;-56
2022/09/18 00:13:31;;;;;;;4.47;2.57;;;10.80;95.90;;;;;;5069902;28;20457;-54
2022/09/18 00:15:58;;;;;;;8.33;6.63;;;10.80;95.00;;;;;;5067783;28;20461;-55
2022/09/18 00:18:24;;;;;;;3.77;3.47;;;10.80;91.20;;;;;;5057263;28;20474;-55
2022/09/18 00:20:51;;;;;;;4.20;3.13;;;10.80;90.50;;;;;;5050245;28;20457;-57
2022/09/18 00:23:18;;;;;;;1.67;1.57;;;10.80;88.20;;;;;;5047720;28;20511;-55
2022/09/18 00:25:46;;;;;;;2.47;1.43;;;10.70;88.70;;;;;;5052306;28;20515;-55
2022/09/18 00:28:12;;;;;;;2.83;2.63;;;10.70;85.80;;;;;;5050448;28;20965;-55
2022/09/18 00:30:39;;;;;;;6.27;4.70;;;10.70;86.20;;;;;;5048219;28;20481;-55
2022/09/18 00:33:06;;;;;;;4.97;3.67;;;10.70;84.30;;;;;;5046179;28;20525;-55
2022/09/18 00:35:32;;;;;;;1.50;1.10;;;10.80;82.00;;;;;;5051375;28;20464;-54
2022/09/18 00:37:59;;;;;;;1.50;1.40;;;10.70;82.00;;;;;;5052383;28;20547;-55
2022/09/18 00:40:26;;;;;;;1.20;1.10;;;10.70;80.30;;;;;;5049829;28;20555;-55
2022/09/18 00:42:53;;;;;;;2.10;1.13;;;10.70;79.60;;;;;;5048126;28;20527;-55
2022/09/18 00:45:21;;;;;;;2.80;1.57;;;10.70;79.30;;;;;;5047167;28;20519;-54
2022/09/18 00:47:49;;;;;;;3.10;0.80;;;10.70;77.20;;;;;;5050184;28;20485;-55
2022/09/18 00:50:20;;;;;;;1.77;1.10;;;10.70;77.80;;;;;;5048884;28;20481;-54
2022/09/18 00:52:53;;;;;;;0.70;0.70;;;10.70;76.90;;;;;;5050651;28;20879;-55
2022/09/18 00:55:24;;;;;;;9.00;0.93;;;10.70;75.90;;;;;;5049387;28;20462;-55
2022/09/18 00:57:54;;;;;;;1.00;0.77;;;10.60;75.60;;;;;;5046803;28;20485;-55
2022/09/18 01:00:22;;;;;;;0.70;0.70;;;10.70;76.40;;;;;;5048438;28;20453;-55
2022/09/18 01:02:49;;;;;;;2.10;0.60;;;10.60;78.40;;;;;;5045907;28;20531;-54
2022/09/18 01:05:22;;;;;;;1.77;0.87;;;10.60;79.80;;;;;;5048399;28;20457;-55
2022/09/18 01:08:01;;;;;;;0.70;0.70;;;10.60;77.90;;;;;;5049097;28;20485;-53
2022/09/18 01:10:39;;;;;;;2.33;0.80;;;10.60;78.50;;;;;;5044543;28;20513;-55
2022/09/18 01:13:15;;;;;;;1.37;0.70;;;10.60;80.20;;;;;;5044569;28;20461;-55
2022/09/18 01:15:49;;;;;;;0.70;0.70;;;10.50;80.00;;;;;;5044809;28;21217;-55
2022/09/18 01:18:24;;;;;;;0.87;0.60;;;10.50;80.90;;;;;;5045875;28;20555;-55
2022/09/18 01:21:08;;;;;;;0.97;0.50;;;10.50;83.60;;;;;;5045796;28;20971;-55
2022/09/18 01:24:17;;;;;;;1.70;0.70;;;10.50;84.50;;;;;;5050679;28;20462;-55
2022/09/18 01:26:53;;;;;;;1.43;0.60;;;10.50;84.10;;;;;;5037643;28;20464;-55
2022/09/18 01:29:28;;;;;;;0.60;0.60;;;10.50;85.50;;;;;;5047148;28;20955;-55
2022/09/18 01:32:00;;;;;;;1.20;0.80;;;10.40;89.80;;;;;;5045122;28;20517;-56
2022/09/18 01:34:33;;;;;;;1.97;0.73;;;10.40;92.90;;;;;;5046148;28;20523;-55
2022/09/18 01:37:06;;;;;;;0.77;0.67;;;10.40;93.40;;;;;;5049784;28;20458;-55
2022/09/18 01:39:39;;;;;;;3.07;0.70;;;10.40;92.80;;;;;;5049052;28;20493;-55
2022/09/18 01:42:08;;;;;;;3.40;0.70;;;10.40;93.80;;;;;;5049425;28;20876;-55
2022/09/18 01:44:40;;;;;;;0.57;0.50;;;10.40;94.80;;;;;;5047661;28;21410;-55
2022/09/18 01:47:13;;;;;;;0.70;0.60;;;10.40;94.40;;;;;;5049836;28;20492;-55
2022/09/18 01:49:43;;;;;;;0.60;0.50;;;10.30;96.80;;;;;;5046437;28;20543;-55
2022/09/18 01:52:14;;;;;;;0.70;0.50;;;10.40;96.00;;;;;;5047523;28;20563;-55
2022/09/18 01:54:45;;;;;;;0.60;0.50;;;10.30;97.60;;;;;;5049069;28;20458;-55
2022/09/18 01:57:17;;;;;;;1.30;0.97;;;10.30;97.20;;;;;;5046066;28;20466;-55
2022/09/18 01:59:49;;;;;;;0.60;0.57;;;10.30;96.40;;;;;;5047234;28;20635;-55
2022/09/18 02:02:20;;;;;;;1.23;0.67;;;10.30;95.70;;;;;;5049128;28;20450;-55
2022/09/18 02:04:49;;;;;;;0.73;0.60;;;10.40;92.20;;;;;;5044638;28;20462;-55
2022/09/18 02:07:21;;;;;;;1.90;0.67;;;10.30;93.40;;;;;;5048342;28;20486;-54
2022/09/18 02:09:48;;;;;;;0.80;0.60;;;10.30;92.70;;;;;;5047351;28;20462;-55
2022/09/18 02:12:20;;;;;;;2.60;0.77;;;10.30;91.50;;;;;;5046216;28;20482;-55
2022/09/18 02:14:51;;;;;;;3.90;0.77;;;10.30;91.90;;;;;;5045930;28;20490;-54
2022/09/18 02:17:21;;;;;;;1.67;0.63;;;10.30;88.40;;;;;;5045274;28;20539;-55
2022/09/18 02:19:53;;;;;;;2.73;1.03;;;10.30;84.60;;;;;;5044887;28;20878;-56
2022/09/18 02:22:24;;;;;;;0.90;0.80;;;10.30;84.20;;;;;;5041326;28;20529;-55
2022/09/18 02:24:55;;;;;;;1.00;0.90;;;10.30;81.00;;;;;;5049592;28;21003;-56
2022/09/18 02:27:23;;;;;;;0.80;0.80;;;10.30;79.20;;;;;;5043758;28;20497;-54
2022/09/18 02:29:52;;;;;;;1.13;0.80;;;10.30;78.10;;;;;;5046837;28;21144;-56
2022/09/18 02:32:19;;;;;;;1.97;0.70;;;10.30;76.50;;;;;;5048325;28;20543;-54
2022/09/18 02:34:46;;;;;;;1.13;0.70;;;10.30;73.00;;;;;;5048375;28;20454;-56
2022/09/18 02:37:35;;;;;;;2.03;0.73;;;10.30;70.90;;;;;;5046853;28;20532;-55
2022/09/18 02:40:20;;;;;;;4.57;1.10;;;10.20;69.60;;;;;;5049195;28;20454;-55
2022/09/18 02:42:55;;;;;;;1.93;0.90;;;10.20;67.60;;;;;;5045577;28;20453;-55
2022/09/18 02:45:31;;;;;;;3.03;1.00;;;10.20;66.50;;;;;;5043759;28;20546;-55
2022/09/18 02:48:09;;;;;;;3.63;1.13;;;10.20;64.50;;;;;;5046915;28;20538;-56
2022/09/18 02:50:46;;;;;;;1.23;1.10;;;10.20;63.70;;;;;;5047867;28;21039;-56
2022/09/18 02:53:21;;;;;;;2.60;1.33;;;10.20;62.30;;;;;;5047434;28;20515;-56
2022/09/18 02:55:53;;;;;;;2.90;1.27;;;10.20;63.10;;;;;;5047954;28;20519;-55
2022/09/18 02:58:28;;;;;;;2.23;1.17;;;10.20;60.40;;;;;;5044530;28;20843;-54
2022/09/18 03:01:00;;;;;;;6.57;1.73;;;10.20;60.50;;;;;;5043322;28;20453;-55
2022/09/18 03:03:29;;;;;;;4.07;1.47;;;10.30;60.20;;;;;;5048224;28;20482;-55
2022/09/18 03:05:57;;;;;;;6.20;1.50;;;10.20;59.90;;;;;;5046266;28;20458;-55
2022/09/18 03:08:24;;;;;;;4.80;1.13;;;10.20;59.60;;;;;;5047956;28;20501;-55
2022/09/18 03:10:50;;;;;;;3.67;1.40;;;10.20;59.10;;;;;;5045034;28;20547;-55
2022/09/18 03:13:17;;;;;;;4.23;1.30;;;10.20;59.00;;;;;;5045129;28;20523;-54
2022/09/18 03:15:44;;;;;;;3.83;1.10;;;10.20;58.30;;;;;;5046419;28;20497;-55
2022/09/18 03:18:13;;;;;;;3.70;1.50;;;10.20;58.50;;;;;;5045855;28;20486;-55
2022/09/18 03:20:41;;;;;;;14.40;3.00;;;10.20;58.90;;;;;;5038615;28;20454;-55
2022/09/18 03:23:08;;;;;;;12.40;2.60;;;10.20;58.30;;;;;;5041742;28;20489;-54
2022/09/18 03:25:35;;;;;;;6.23;1.43;;;10.20;59.50;;;;;;5044434;28;20457;-54
2022/09/18 03:28:01;;;;;;;5.47;2.00;;;10.20;58.50;;;;;;5045540;28;20488;-55
2022/09/18 03:30:28;;;;;;;17.23;3.97;;;10.20;58.20;;;;;;5047117;28;20545;-56
2022/09/18 03:32:55;;;;;;;7.03;1.77;;;10.20;60.10;;;;;;5047196;28;20521;-55
2022/09/18 03:35:23;;;;;;;8.60;2.07;;;10.20;60.70;;;;;;5045771;28;20453;-54
2022/09/18 03:37:50;;;;;;;9.50;2.90;;;10.20;60.30;;;;;;5044890;28;20474;-55
2022/09/18 03:40:16;;;;;;;16.93;2.10;;;10.20;60.60;;;;;;5044862;28;20473;-55
2022/09/18 03:42:44;;;;;;;10.50;2.23;;;10.20;63.60;;;;;;5044541;28;20457;-55
2022/09/18 03:45:11;;;;;;;10.67;3.00;;;10.10;65.40;;;;;;5046094;28;20461;-54
2022/09/18 03:47:38;;;;;;;7.67;2.23;;;10.10;68.40;;;;;;5046050;28;20517;-55
2022/09/18 03:50:05;;;;;;;14.13;2.23;;;10.10;73.20;;;;;;5047919;28;20457;-55
2022/09/18 03:52:34;;;;;;;8.57;2.13;;;10.10;72.30;;;;;;5046189;28;20482;-56
2022/09/18 03:55:01;;;;;;;12.57;2.60;;;10.00;75.50;;;;;;5041074;28;20498;-56
2022/09/18 03:57:27;;;;;;;12.37;2.20;;;10.10;77.90;;;;;;5046115;28;20543;-54
2022/09/18 03:59:54;;;;;;;7.90;2.40;;;10.10;74.70;;;;;;5047900;28;20867;-54
2022/09/18 04:02:20;;;;;;;8.73;2.03;;;10.10;78.80;;;;;;5045859;28;20588;-55
2022/09/18 04:04:47;;;;;;;12.13;2.53;;;10.10;77.60;;;;;;5046824;28;20454;-55
2022/09/18 04:07:14;;;;;;;14.17;3.57;;;10.10;77.20;;;;;;5044072;28;20876;-54
2022/09/18 04:09:41;;;;;;;5.07;2.57;;;10.10;78.00;;;;;;5045260;28;20507;-54
2022/09/18 04:12:08;;;;;;;8.03;2.03;;;10.00;79.30;;;;;;5045760;28;20509;-55
2022/09/18 04:14:35;;;;;;;8.40;2.57;;;10.00;82.20;;;;;;5046775;28;20462;-55
2022/09/18 04:17:01;;;;;;;6.50;2.37;;;10.00;82.70;;;;;;5047536;28;20523;-55
2022/09/18 04:19:28;;;;;;;10.37;2.30;;;10.00;84.60;;;;;;5047565;28;20462;-55
2022/09/18 04:21:54;;;;;;;7.60;2.30;;;10.00;87.50;;;;;;5042368;28;20445;-56
2022/09/18 04:24:21;;;;;;;8.40;2.50;;;9.90;91.90;;;;;;5046062;28;20458;-55
2022/09/18 04:26:49;;;;;;;10.97;3.13;;;9.90;91.20;;;;;;5046253;28;20515;-55
2022/09/18 04:29:16;;;;;;;7.47;2.57;;;10.00;92.80;;;;;;5044484;28;20488;-55
2022/09/18 04:31:42;;;;;;;7.60;1.93;;;9.90;93.60;;;;;;5049107;28;21070;-54
2022/09/18 04:34:09;;;;;;;6.57;1.97;;;9.90;94.70;;;;;;5052715;28;20868;-55
2022/09/18 04:36:35;;;;;;;10.40;2.50;;;9.90;94.60;;;;;;5046325;28;20453;-54
2022/09/18 04:39:02;;;;;;;9.67;2.67;;;10.00;94.20;;;;;;5051107;28;20485;-55
2022/09/18 04:41:29;;;;;;;5.83;1.73;;;10.00;92.80;;;;;;5049717;28;20465;-55
2022/09/18 04:43:57;;;;;;;25.00;2.17;;;9.90;91.50;;;;;;5048866;28;20454;-55
2022/09/18 04:46:23;;;;;;;10.73;2.60;;;9.90;94.00;;;;;;5050098;28;20575;-55
2022/09/18 04:48:50;;;;;;;5.17;1.90;;;9.90;98.00;;;;;;5050185;28;20858;-54
2022/09/18 04:51:17;;;;;;;4.33;2.30;;;9.90;99.70;;;;;;5047211;28;20855;-56
2022/09/18 04:53:43;;;;;;;8.47;2.33;;;9.80;99.90;;;;;;5049149;28;20465;-50
2022/09/18 04:56:10;;;;;;;9.77;2.77;;;9.90;99.90;;;;;;5051959;28;20545;-50
2022/09/18 04:58:36;;;;;;;4.73;1.83;;;9.80;99.90;;;;;;5050251;28;20592;-50
2022/09/18 05:01:04;;;;;;;9.00;2.63;;;9.80;99.90;;;;;;5050890;28;20535;-51
2022/09/18 05:03:31;;;;;;;4.27;1.57;;;9.80;99.90;;;;;;5048723;28;20453;-50
2022/09/18 05:05:57;;;;;;;10.47;2.60;;;9.80;99.90;;;;;;5050587;28;20876;-50
2022/09/18 05:08:24;;;;;;;4.70;1.70;;;9.70;99.90;;;;;;5048036;28;20559;-50
2022/09/18 05:10:51;;;;;;;6.50;1.73;;;9.70;99.90;;;;;;5050885;28;20461;-50
2022/09/18 05:13:17;;;;;;;9.00;2.20;;;9.70;99.90;;;;;;5050611;28;21015;-54
2022/09/18 05:15:44;;;;;;;7.50;2.60;;;9.70;99.90;;;;;;5046176;28;20458;-54
2022/09/18 05:18:12;;;;;;;7.53;2.37;;;9.70;99.90;;;;;;5050497;28;20546;-55
2022/09/18 05:20:39;;;;;;;3.77;1.50;;;9.70;99.90;;;;;;5049332;28;20465;-50
2022/09/18 05:23:06;;;;;;;7.20;2.13;;;9.70;99.90;;;;;;5050491;28;20457;-50
2022/09/18 05:25:33;;;;;;;7.90;1.80;;;9.70;99.90;;;;;;5049461;28;20466;-50
2022/09/18 05:28:01;;;;;;;9.77;1.90;;;9.70;99.90;;;;;;5048368;28;21072;-50
2022/09/18 05:30:30;;;;;;;3.53;1.63;;;9.70;99.90;;;;;;5050020;28;20545;-51
2022/09/18 05:32:58;;;;;;;7.10;1.90;;;9.80;99.90;;;;;;5048098;28;20551;-50
2022/09/18 05:35:28;;;;;;;6.37;1.83;;;9.80;99.90;;;;;;5048000;28;20860;-50
2022/09/18 05:37:55;;;;;;;10.00;2.17;;;9.80;99.90;;;;;;5049958;28;20896;-51
2022/09/18 05:40:24;;;;;;;11.50;2.00;;;9.80;99.90;;;;;;5047466;28;20550;-51
2022/09/18 05:42:52;;;;;;;12.50;4.10;;;9.80;99.90;;;;;;5049779;28;20450;-50
2022/09/18 05:45:20;;;;;;;9.20;3.97;;;9.80;99.90;;;;;;5049783;28;20955;-51
2022/09/18 05:47:54;;;;;;;7.97;3.03;;;9.80;99.90;;;;;;5049531;28;20477;-50
2022/09/18 05:50:21;;;;;;;12.50;7.07;;;9.80;99.90;;;;;;5050104;28;20472;-51
2022/09/18 05:52:57;;;;;;;20.47;7.73;;;9.80;99.90;;;;;;5049793;28;20832;-50
2022/09/18 05:55:24;;;;;;;32.93;16.93;;;9.80;99.90;;;;;;5049436;28;20462;-50
2022/09/18 05:57:52;;;;;;;32.13;14.53;;;9.80;1.40;;;;;;5048543;28;20482;-50
2022/09/18 06:00:19;;;;;;;31.43;13.87;;;9.80;99.90;;;;;;5049714;28;20516;-53
2022/09/18 06:02:52;;;;;;;28.53;13.17;;;9.80;99.90;;;;;;5043220;28;20943;-51
2022/09/18 06:05:19;;;;;;;6.90;3.03;;;9.80;99.90;;;;;;5045903;28;20511;-51
2022/09/18 06:07:46;;;;;;;17.37;8.80;;;9.80;99.90;;;;;;5063587;22;20477;-53
2022/09/18 06:10:14;;;;;;;6.60;3.33;;;9.80;99.90;;;;;;5028316;28;20467;-53
2022/09/18 06:12:40;;;;;;;11.03;5.40;;;9.80;99.90;;;;;;5028471;28;20616;-53
2022/09/18 06:15:08;;;;;;;14.73;5.10;;;9.80;99.90;;;;;;5024692;28;20462;-53
2022/09/18 06:17:35;;;;;;;13.90;5.53;;;9.80;99.90;;;;;;5026872;28;20463;-54
2022/09/18 06:20:02;;;;;;;11.33;4.43;;;9.80;99.90;;;;;;5024411;28;20494;-54
2022/09/18 06:22:28;;;;;;;8.43;5.30;;;9.70;99.90;;;;;;5022714;28;20451;-54
2022/09/18 06:24:55;;;;;;;10.23;3.00;;;9.70;99.90;;;;;;5029307;28;20488;-53
2022/09/18 06:27:23;;;;;;;11.77;3.60;;;9.80;99.90;;;;;;5027990;28;20495;-53
2022/09/18 06:29:50;;;;;;;6.40;2.50;;;9.80;99.90;;;;;;5027531;28;20568;-54
2022/09/18 06:32:18;;;;;;;13.80;3.30;;;9.80;99.90;;;;;;5025825;28;20566;-54
2022/09/18 06:34:44;;;;;;;12.83;3.70;;;9.80;99.90;;;;;;5021421;28;20536;-53
2022/09/18 06:37:12;;;;;;;9.57;3.03;;;9.80;99.90;;;;;;5026333;28;20459;-54
2022/09/18 06:39:39;;;;;;;11.77;2.60;;;9.80;99.90;;;;;;5025402;28;20580;-53
2022/09/18 06:42:06;;;;;;;10.90;3.80;;;9.80;99.90;;;;;;5024719;28;20496;-52
2022/09/18 06:44:34;;;;;;;7.23;2.67;;;9.80;99.90;;;;;;5026131;28;20470;-53
2022/09/18 06:47:01;;;;;;;15.57;2.97;;;9.90;99.90;;;;;;5026272;28;20494;-53
2022/09/18 06:49:27;;;;;;;9.70;2.80;;;9.90;99.90;;;;;;5025998;28;20827;-53
2022/09/18 06:51:54;;;;;;;11.00;3.13;;;9.90;99.90;;;;;;5026291;28;20490;-52
2022/09/18 06:54:21;;;;;;;9.13;2.90;;;10.00;99.90;;;;;;5026211;28;20524;-53
2022/09/18 06:56:48;;;;;;;9.03;2.63;;;10.00;99.90;;;;;;5027782;28;20968;-53
2022/09/18 06:59:14;;;;;;;11.83;2.83;;;10.10;99.90;;;;;;5027801;28;20491;-53
2022/09/18 07:01:42;;;;;;;9.77;2.53;;;10.10;99.90;;;;;;5018334;28;20591;-53
2022/09/18 07:04:09;;;;;;;7.07;2.80;;;10.10;99.90;;;;;;5030005;28;20465;-53
2022/09/18 07:06:35;;;;;;;7.10;2.37;;;10.20;99.90;;;;;;5021735;28;20487;-53
2022/09/18 07:09:02;;;;;;;11.87;2.73;;;10.20;86.70;;;;;;5028498;28;21081;-54
2022/09/18 07:11:29;;;;;;;7.70;2.30;;;10.20;24.50;;;;;;5020961;28;20572;-54
2022/09/18 07:13:55;;;;;;;15.93;3.37;;;10.20;33.00;;;;;;5026154;28;20522;-53
2022/09/18 07:16:22;;;;;;;5.67;2.07;;;10.30;33.10;;;;;;5023739;28;20463;-54
2022/09/18 07:18:50;;;;;;;4.60;2.20;;;10.40;42.00;;;;;;5028093;28;20470;-53
2022/09/18 07:21:16;;;;;;;13.43;3.07;;;10.50;44.00;;;;;;5022924;28;20455;-53
2022/09/18 07:23:43;;;;;;;7.83;2.43;;;10.50;51.20;;;;;;5026906;28;20466;-53
2022/09/18 07:26:10;;;;;;;6.03;1.93;;;10.50;60.20;;;;;;5026459;28;20497;-52
2022/09/18 07:28:37;;;;;;;5.20;2.07;;;10.60;72.00;;;;;;5027313;28;21028;-52
2022/09/18 07:31:04;;;;;;;10.33;2.60;;;10.60;75.60;;;;;;5027139;28;20482;-53
2022/09/18 07:33:31;;;;;;;7.20;2.23;;;10.60;89.10;;;;;;5025759;28;20925;-54
2022/09/18 07:36:01;;;;;;;9.57;1.77;;;10.70;89.50;;;;;;5023537;28;20605;-53
2022/09/18 07:38:28;;;;;;;7.53;2.03;;;10.70;99.50;;;;;;5025789;28;20475;-54
2022/09/18 07:40:54;;;;;;;12.10;2.90;;;10.80;97.40;;;;;;5026793;28;20801;-54
2022/09/18 07:43:21;;;;;;;10.23;3.03;;;10.80;99.90;;;;;;5030005;28;20804;-54
2022/09/18 07:45:47;;;;;;;8.67;1.90;;;10.80;99.90;;;;;;5021769;28;20549;-52
2022/09/18 07:48:15;;;;;;;9.13;2.40;;;10.90;99.90;;;;;;5024454;28;20478;-54
2022/09/18 07:50:42;;;;;;;4.27;1.90;;;11.00;99.90;;;;;;5026642;28;20458;-54
2022/09/18 07:53:10;;;;;;;10.50;3.00;;;11.00;99.90;;;;;;5023512;28;20486;-53
2022/09/18 07:55:37;;;;;;;8.40;2.30;;;11.10;99.90;;;;;;5023658;28;20537;-53
2022/09/18 07:58:06;;;;;;;10.00;2.70;;;11.20;99.90;;;;;;5025085;28;20482;-54
2022/09/18 08:00:34;;;;;;;7.20;2.37;;;11.20;99.90;;;;;;5025483;28;20544;-53
2022/09/18 08:03:02;;;;;;;5.93;2.43;;;11.30;99.90;;;;;;5023407;28;20517;-53
2022/09/18 08:05:29;;;;;;;12.00;3.00;;;11.20;99.90;;;;;;5015065;28;20534;-54
2022/09/18 08:07:55;;;;;;;8.10;2.47;;;11.20;99.90;;;;;;5017804;28;20514;-54
2022/09/18 08:10:24;;;;;;;9.00;2.67;;;11.20;99.90;;;;;;5018595;28;20486;-52
2022/09/18 08:12:53;;;;;;;16.17;2.67;;;11.40;99.90;;;;;;5016414;28;21082;-52
2022/09/18 08:15:20;;;;;;;9.57;2.10;;;11.50;99.90;;;;;;5022794;28;20491;-53
2022/09/18 08:17:47;;;;;;;10.53;2.37;;;11.50;99.90;;;;;;5017749;28;20459;-53
2022/09/18 08:20:13;;;;;;;6.47;2.07;;;11.60;99.90;;;;;;5021675;28;20490;-52
2022/09/18 08:22:40;;;;;;;4.57;2.20;;;11.70;99.90;;;;;;5028002;28;20514;-54
2022/09/18 08:25:08;;;;;;;4.40;1.63;;;11.80;99.90;;;;;;5026283;28;20835;-54
2022/09/18 08:27:36;;;;;;;7.33;4.73;;;11.90;99.90;;;;;;5016721;28;20471;-55
2022/09/18 08:30:04;;;;;;;8.63;3.60;;;12.00;99.90;;;;;;5023804;28;20458;-54
2022/09/18 08:32:31;;;;;;;7.20;1.90;;;12.10;99.90;;;;;;5030057;28;20512;-54
2022/09/18 08:34:58;;;;;;;8.57;1.90;;;12.10;99.90;;;;;;5030152;28;20548;-54
2022/09/18 08:37:25;;;;;;;9.33;2.30;;;12.20;99.90;;;;;;5029668;28;20485;-53
2022/09/18 08:39:52;;;;;;;5.40;2.30;;;12.40;99.90;;;;;;5029349;28;20484;-53
2022/09/18 08:42:27;;;;;;;12.67;3.27;;;12.50;99.90;;;;;;5027280;28;20459;-53
2022/09/18 08:44:59;;;;;;;10.37;3.90;;;12.40;99.90;;;;;;5025763;28;20979;-53
2022/09/18 08:47:31;;;;;;;11.77;4.60;;;12.40;99.90;;;;;;5018028;28;21048;-52
2022/09/18 08:50:01;;;;;;;16.90;4.80;;;12.40;99.90;;;;;;5029253;28;20505;-52
2022/09/18 08:52:32;;;;;;;25.83;4.83;;;12.40;99.90;;;;;;5029029;28;21017;-52
2022/09/18 08:55:03;;;;;;;10.60;4.10;;;12.50;99.90;;;;;;5032155;28;20534;-53
2022/09/18 08:57:35;;;;;;;11.43;3.30;;;12.50;99.90;;;;;;5028240;28;20463;-53
2022/09/18 09:00:08;;;;;;;8.73;4.37;;;12.50;99.90;;;;;;5032797;28;20486;-54
2022/09/18 09:02:40;;;;;;;7.60;2.20;;;12.60;99.90;;;;;;5030392;28;20470;-53
2022/09/18 09:05:10;;;;;;;11.93;2.57;;;12.60;99.90;;;;;;5027049;28;21010;-53
2022/09/18 09:08:02;;;;;;;13.03;3.10;;;12.60;99.90;;;;;;5026371;28;20495;-53
2022/09/18 09:10:42;;;;;;;2.43;1.40;;;12.40;99.90;;;;;;5020976;28;20583;-52
2022/09/18 09:13:46;;;;;;;8.37;2.00;;;12.30;99.90;;;;;;5023929;28;20510;-53
2022/09/18 09:16:17;;;;;;;7.70;2.23;;;12.30;99.90;;;;;;5034034;28;20465;-53
2022/09/18 09:18:57;;;;;;;5.63;1.73;;;12.20;99.90;;;;;;5031684;28;20566;-53
2022/09/18 09:21:33;;;;;;;7.97;2.30;;;12.30;99.90;;;;;;5023956;28;20451;-53
2022/09/18 09:24:19;;;;;;;10.60;2.40;;;12.40;99.90;;;;;;5025777;28;20462;-53
2022/09/18 09:26:48;;;;;;;17.60;4.93;;;12.50;92.10;;;;;;5029296;28;20588;-52
2022/09/18 09:29:21;;;;;;;13.07;3.23;;;12.50;80.50;;;;;;5032007;28;20514;-53
2022/09/18 09:31:54;;;;;;;9.83;1.63;;;12.50;99.90;;;;;;5027971;28;21062;-53
2022/09/18 09:34:25;;;;;;;9.73;2.80;;;12.60;99.90;;;;;;5029414;28;20554;-54
2022/09/18 09:36:55;;;;;;;4.77;2.10;;;12.50;78.10;;;;;;5027519;28;20825;-54
2022/09/18 09:39:26;;;;;;;10.30;3.00;;;12.50;21.70;;;;;;5029520;28;20483;-53
2022/09/18 09:41:55;;;;;;;6.57;2.10;;;12.50;26.80;;;;;;5025709;28;20455;-53
2022/09/18 09:44:31;;;;;;;4.20;2.10;;;12.80;99.90;;;;;;5029889;28;20486;-53
2022/09/18 09:47:10;;;;;;;4.77;2.03;;;13.00;22.90;;;;;;5026593;28;20460;-53
2022/09/18 09:49:46;;;;;;;6.37;1.87;;;13.40;27.60;;;;;;5030220;28;20514;-53
2022/09/18 09:52:20;;;;;;;8.53;1.60;;;13.90;57.60;;;;;;5022363;28;20583;-53
2022/09/18 09:54:49;;;;;;;3.90;1.67;;;14.40;68.10;;;;;;5024204;28;20470;-53
2022/09/18 09:57:24;;;;;;;7.60;1.47;;;14.10;80.20;;;;;;5027814;28;20968;-53
2022/09/18 09:59:58;;;;;;;8.40;2.30;;;13.70;81.30;;;;;;5029255;28;20516;-53
2022/09/18 10:02:36;;;;;;;4.50;1.40;;;13.40;93.90;;;;;;5027519;28;20539;-53
2022/09/18 10:05:11;;;;;;;5.50;1.77;;;13.30;71.40;;;;;;5028649;28;20490;-53
2022/09/18 10:07:43;;;;;;;8.53;1.80;;;13.20;73.20;;;;;;5025683;28;20484;-51
2022/09/18 10:10:17;;;;;;;15.50;2.30;;;13.40;76.70;;;;;;5019246;28;21574;-53
2022/09/18 10:12:51;;;;;;;3.57;1.37;;;13.40;73.20;;;;;;5024867;28;20490;-52
2022/09/18 10:15:20;;;;;;;25.10;13.13;;;13.50;72.80;;;;;;5022158;28;21025;-52
2022/09/18 10:17:50;;;;;;;4.50;1.70;;;13.60;69.10;;;;;;5025081;28;20454;-51
2022/09/18 10:20:21;;;;;;;9.20;1.50;;;13.70;67.80;;;;;;5025127;28;20463;-47
2022/09/18 10:22:48;;;;;;;7.17;1.83;;;13.80;76.40;;;;;;5024873;28;20525;-48
2022/09/18 10:25:23;;;;;;;4.53;1.53;;;13.90;82.20;;;;;;5024652;28;20552;-47
2022/09/18 10:27:49;;;;;;;3.67;1.60;;;13.80;76.30;;;;;;5028396;28;20567;-48
2022/09/18 10:30:16;;;;;;;7.10;1.67;;;13.80;83.40;;;;;;5020040;28;20569;-48
2022/09/18 10:32:44;;;;;;;6.77;2.97;;;13.70;82.90;;;;;;5024326;28;20467;-47
2022/09/18 10:35:42;;;;;;;5.53;1.63;;;13.60;82.20;;;;;;5025381;28;20914;-48
2022/09/18 10:38:29;;;;;;;5.20;1.33;;;13.40;83.60;;;;;;5028171;28;20580;-48
2022/09/18 10:40:56;;;;;;;3.67;1.70;;;13.40;89.10;;;;;;5021821;28;21053;-48
2022/09/18 10:43:23;;;;;;;4.07;1.70;;;13.30;83.60;;;;;;5020683;28;20459;-49
2022/09/18 10:45:54;;;;;;;3.97;1.50;;;13.20;87.20;;;;;;5012174;28;20486;-48
2022/09/18 10:48:24;;;;;;;6.63;1.47;;;13.30;97.40;;;;;;5021669;28;20510;-48
2022/09/18 10:50:56;;;;;;;2.53;1.30;;;13.50;88.60;;;;;;5019097;28;20462;-48
2022/09/18 10:53:29;;;;;;;4.97;1.77;;;13.80;92.50;;;;;;5019284;28;20972;-47
2022/09/18 10:56:03;;;;;;;7.33;1.57;;;13.80;99.90;;;;;;5019321;28;20458;-48
2022/09/18 10:58:32;;;;;;;8.07;1.80;;;13.90;99.90;;;;;;5024093;28;20483;-48
2022/09/18 11:01:02;;;;;;;7.10;2.80;;;14.10;99.90;;;;;;5016117;28;21067;-48
2022/09/18 11:03:41;;;;;;;2.90;1.30;;;14.10;99.90;;;;;;5014972;28;21032;-48
2022/09/18 11:06:18;;;;;;;9.50;1.10;;;14.20;99.90;;;;;;5016571;28;20485;-48
2022/09/18 11:08:48;;;;;;;3.60;1.93;;;14.20;99.90;;;;;;5016785;28;20486;-48
2022/09/18 11:11:22;;;;;;;4.10;1.63;;;14.10;99.90;;;;;;5015709;28;20466;-48
2022/09/18 11:13:54;;;;;;;3.53;1.30;;;14.00;99.90;;;;;;5025313;28;20502;-47
2022/09/18 11:16:26;;;;;;;4.10;2.60;;;13.90;99.90;;;;;;5023307;28;20459;-48
2022/09/18 11:19:05;;;;;;;4.57;1.77;;;13.90;99.90;;;;;;5024298;28;20988;-47
2022/09/18 11:21:41;;;;;;;4.73;1.20;;;13.90;99.90;;;;;;5016432;28;20549;-48
2022/09/18 11:24:18;;;;;;;9.70;1.67;;;13.90;99.90;;;;;;5028257;28;20457;-47
2022/09/18 11:26:49;;;;;;;9.63;3.20;;;14.00;99.90;;;;;;5029448;28;20463;-47
2022/09/18 11:29:19;;;;;;;5.60;1.60;;;14.10;99.90;;;;;;5023241;28;20479;-48
2022/09/18 11:31:49;;;;;;;4.90;1.77;;;14.20;99.90;;;;;;5026496;28;20517;-48
2022/09/18 11:34:23;;;;;;;2.30;1.13;;;14.20;99.90;;;;;;5027344;28;20522;-48
2022/09/18 11:36:55;;;;;;;3.83;1.77;;;14.30;99.90;;;;;;5028091;28;20494;-48
2022/09/18 11:39:26;;;;;;;6.57;1.50;;;14.40;99.90;;;;;;5025097;28;20490;-48
2022/09/18 11:41:54;;;;;;;19.13;2.10;;;14.50;99.90;;;;;;5022314;28;20484;-48
2022/09/18 11:44:25;;;;;;;10.13;1.80;;;14.50;99.90;;;;;;5025835;28;20525;-48
2022/09/18 11:47:12;;;;;;;7.17;1.60;;;14.50;99.90;;;;;;5027784;28;20461;-48
2022/09/18 11:49:43;;;;;;;6.10;1.60;;;14.50;99.90;;;;;;5030467;28;20501;-48
2022/09/18 11:52:15;;;;;;;5.07;1.50;;;14.60;99.90;;;;;;5029939;28;20595;-48
2022/09/18 11:54:46;;;;;;;6.63;1.70;;;14.70;99.90;;;;;;5026863;28;20481;-50
2022/09/18 11:57:16;;;;;;;7.50;1.77;;;14.80;99.90;;;;;;5032746;28;20462;-50
2022/09/18 11:59:50;;;;;;;6.00;2.27;;;14.80;99.90;;;;;;5638727;22;21392;-50
2022/09/18 12:02:23;;;;;;;5.53;2.27;;;14.70;99.90;;;;;;4996865;28;20464;-50
2022/09/18 12:04:54;;;;;;;5.83;1.73;;;14.60;99.90;;;;;;5004604;28;20463;-50
2022/09/18 12:07:32;;;;;;;4.00;1.90;;;14.40;99.90;;;;;;5005238;28;20557;-50
2022/09/18 12:10:06;;;;;;;13.60;8.43;;;14.40;99.90;;;;;;5003031;28;20889;-49
2022/09/18 12:12:39;;;;;;;5.93;1.80;;;14.30;99.90;;;;;;4992214;28;21034;-50
2022/09/18 12:15:14;;;;;;;11.00;4.40;;;14.20;99.90;;;;;;5006073;28;21004;-49
2022/09/18 12:17:46;;;;;;;8.87;5.37;;;14.00;99.90;;;;;;5001974;28;20884;-49
2022/09/18 12:20:19;;;;;;;4.50;2.03;;;14.10;99.90;;;;;;5003338;28;21028;-50
2022/09/18 12:22:51;;;;;;;3.97;1.87;;;14.30;99.90;;;;;;5009118;28;20491;-49
2022/09/18 12:25:18;;;;;;;3.80;1.40;;;14.40;99.90;;;;;;5006969;28;20543;-50
2022/09/18 12:27:54;;;;;;;4.00;1.20;;;14.50;99.90;;;;;;5002984;28;20866;-49
2022/09/18 12:30:25;;;;;;;4.20;1.40;;;14.50;99.90;;;;;;5003723;28;20507;-51
2022/09/18 12:33:17;;;;;;;14.23;8.63;;;14.60;99.90;;;;;;5007997;28;20467;-52
2022/09/18 12:35:56;;;;;;;7.03;1.87;;;14.60;99.90;;;;;;5008614;28;20582;-51
2022/09/18 12:38:40;;;;;;;9.60;2.13;;;14.80;99.90;;;;;;5005988;28;20876;-51
2022/09/18 12:41:26;;;;;;;16.53;8.73;;;14.90;99.90;;;;;;5008185;28;20576;-50
2022/09/18 12:44:17;;;;;;;8.87;2.10;;;14.80;99.90;;;;;;5007835;28;20545;-49
2022/09/18 12:46:56;;;;;;;8.87;1.70;;;14.90;99.90;;;;;;5002646;28;20471;-48
2022/09/18 12:49:45;;;;;;;20.23;5.60;;;14.90;99.90;;;;;;5006311;28;20897;-48
2022/09/18 12:52:26;;;;;;;7.97;1.90;;;14.90;99.90;;;;;;5005792;28;21058;-48
2022/09/18 12:55:14;;;;;;;5.07;2.13;;;15.00;99.90;;;;;;4998375;28;20475;-48
2022/09/18 12:57:50;;;;;;;6.70;3.60;;;15.20;99.90;;;;;;5008822;28;20484;-48
2022/09/18 13:00:18;;;;;;;6.40;2.83;;;15.40;99.90;;;;;;5008891;28;20487;-48
2022/09/18 13:02:52;;;;;;;3.53;1.40;;;15.40;99.90;;;;;;5005034;28;20555;-48